createdAt,value
2018-08-19T00:03:14.976Z,20.40
2018-08-19T00:08:18.630Z,20.30
2018-08-19T00:13:22.288Z,20.30
2018-08-19T00:18:25.969Z,20.10
2018-08-19T00:23:35.263Z,20.20
2018-08-19T00:28:38.996Z,20.20
2018-08-19T00:33:42.577Z,20.20
2018-08-19T00:38:46.159Z,20.00
2018-08-19T00:43:49.837Z,20.00
2018-08-19T00:48:53.762Z,19.90
2018-08-19T00:53:57.677Z,19.90
2018-08-19T00:59:01.285Z,19.90
2018-08-19T01:04:07.378Z,19.70
2018-08-19T01:09:11.192Z,19.70
2018-08-19T01:14:15.408Z,19.60
2018-08-19T01:19:19.306Z,19.60
2018-08-19T01:24:23.044Z,19.70
2018-08-19T01:29:34.715Z,19.70
2018-08-19T01:34:38.670Z,19.50
2018-08-19T01:39:42.253Z,19.40
2018-08-19T01:44:45.907Z,19.40
2018-08-19T01:49:49.523Z,19.40
2018-08-19T01:54:53.106Z,19.40
2018-08-19T01:59:56.704Z,19.30
2018-08-19T02:05:00.301Z,19.30
2018-08-19T02:10:07.346Z,19.30
2018-08-19T02:15:11.290Z,19.40
2018-08-19T02:20:14.897Z,19.30
2018-08-19T02:25:18.574Z,19.30
2018-08-19T02:30:22.178Z,19.20
2018-08-19T02:35:25.897Z,19.10
2018-08-19T02:40:30.339Z,19.20
2018-08-19T02:45:33.934Z,19.10
2018-08-19T02:50:37.601Z,18.90
2018-08-19T02:55:41.158Z,19.10
2018-08-19T03:00:44.665Z,19.00
2018-08-19T03:06:05.977Z,18.90
2018-08-19T03:11:09.794Z,18.80
2018-08-19T03:16:13.480Z,18.90
2018-08-19T03:21:17.142Z,18.80
2018-08-19T03:26:20.831Z,18.80
2018-08-19T03:31:24.420Z,18.90
2018-08-19T03:36:28.034Z,18.60
2018-08-19T03:41:31.575Z,18.70
2018-08-19T03:46:35.148Z,18.70
2018-08-19T03:51:38.785Z,18.70
2018-08-19T03:56:42.351Z,18.70
2018-08-19T04:01:46.469Z,18.60
2018-08-19T04:06:49.977Z,18.60
2018-08-19T04:12:06.731Z,18.40
2018-08-19T04:17:12.249Z,18.30
2018-08-19T04:22:15.877Z,18.50
2018-08-19T04:27:19.441Z,18.40
2018-08-19T04:32:28.330Z,18.40
2018-08-19T04:37:31.951Z,18.40
2018-08-19T04:42:35.588Z,18.30
2018-08-19T04:47:39.182Z,18.40
2018-08-19T04:52:42.779Z,18.40
2018-08-19T04:57:46.571Z,18.70
2018-08-19T05:02:50.096Z,18.80
2018-08-19T05:07:53.821Z,18.80
2018-08-19T05:12:57.371Z,19.00
2018-08-19T05:18:01.059Z,19.20
2018-08-19T05:23:04.797Z,19.30
2018-08-19T05:28:08.416Z,19.60
2018-08-19T05:33:12.089Z,19.90
2018-08-19T05:38:15.754Z,20.00
2018-08-19T05:43:19.342Z,19.70
2018-08-19T05:48:23.302Z,19.50
2018-08-19T05:53:26.870Z,19.50
2018-08-19T05:58:30.599Z,19.50
2018-08-19T06:03:34.224Z,19.50
2018-08-19T06:08:37.942Z,19.30
2018-08-19T06:13:41.562Z,19.40
2018-08-19T06:18:45.146Z,19.40
2018-08-19T06:23:49.282Z,19.50
2018-08-19T06:28:53.079Z,19.60
2018-08-19T06:33:56.668Z,19.50
2018-08-19T06:39:00.374Z,19.60
2018-08-19T06:44:03.987Z,19.60
2018-08-19T06:49:12.674Z,19.60
2018-08-19T06:54:16.337Z,19.60
2018-08-19T06:59:19.923Z,19.70
2018-08-19T07:04:23.488Z,19.60
2018-08-19T07:09:27.313Z,19.70
2018-08-19T07:14:31.262Z,19.80
2018-08-19T07:19:37.045Z,20.00
2018-08-19T07:24:40.669Z,20.00
2018-08-19T07:29:44.320Z,20.10
2018-08-19T07:34:47.927Z,20.00
2018-08-19T07:39:53.880Z,20.20
2018-08-19T07:44:57.647Z,20.30
2018-08-19T07:50:01.314Z,20.30
2018-08-19T07:55:05.664Z,20.50
2018-08-19T08:00:10.228Z,20.70
2018-08-19T08:05:13.856Z,20.40
2018-08-19T08:10:17.999Z,20.50
2018-08-19T08:15:21.883Z,20.40
2018-08-19T08:20:25.745Z,20.60
2018-08-19T08:25:29.561Z,20.80
2018-08-19T08:30:33.348Z,20.70
2018-08-19T08:35:41.332Z,20.80
2018-08-19T08:40:45.190Z,21.00
2018-08-19T08:45:48.751Z,21.10
2018-08-19T08:50:52.380Z,20.80
2018-08-19T08:55:55.970Z,20.80
2018-08-19T09:01:00.015Z,21.00
2018-08-19T09:06:03.752Z,21.00
2018-08-19T09:11:07.485Z,21.20
2018-08-19T09:16:11.176Z,21.60
2018-08-19T09:21:15.304Z,21.90
2018-08-19T09:26:18.997Z,22.00
2018-08-19T09:31:22.579Z,22.20
2018-08-19T09:36:26.248Z,22.60
2018-08-19T09:41:29.838Z,22.20
2018-08-19T09:46:33.541Z,22.10
2018-08-19T09:51:37.102Z,22.10
2018-08-19T09:56:40.834Z,22.00
2018-08-19T10:01:47.415Z,22.30
2018-08-19T10:07:01.452Z,22.20
2018-08-19T10:17:42.882Z,22.50
2018-08-19T10:22:46.501Z,22.80
2018-08-19T13:09:08.311Z,28.20
2018-08-19T13:14:12.118Z,28.70
2018-08-19T13:19:17.337Z,29.60
2018-08-19T13:24:26.701Z,28.70
2018-08-19T13:29:38.411Z,28.60
2018-08-19T13:34:42.560Z,27.70
2018-08-19T13:39:47.631Z,27.30
2018-08-19T13:44:53.206Z,29.50
2018-08-19T13:49:57.240Z,28.10
2018-08-19T13:55:03.206Z,28.90
2018-08-19T14:00:16.134Z,28.70
2018-08-19T14:05:20.340Z,28.20
2018-08-19T14:10:28.073Z,28.40
2018-08-19T14:15:32.936Z,28.20
2018-08-19T14:20:40.056Z,27.90
2018-08-19T14:25:44.974Z,28.00
2018-08-19T14:30:49.054Z,28.00
2018-08-19T14:35:55.117Z,28.20
2018-08-19T14:40:59.615Z,28.20
2018-08-19T14:46:04.444Z,28.20
2018-08-19T14:51:09.510Z,27.20
2018-08-19T14:56:16.183Z,26.70
2018-08-19T15:01:20.611Z,27.30
2018-08-19T15:06:25.171Z,28.30
2018-08-19T15:11:42.777Z,28.20
2018-08-19T15:16:53.398Z,27.80
2018-08-19T15:55:18.224Z,26.90
2018-08-19T16:00:21.889Z,26.70
2018-08-19T16:05:25.714Z,26.50
2018-08-19T16:10:39.375Z,26.60
2018-08-19T16:15:44.316Z,26.70
2018-08-19T16:20:52.491Z,26.50
2018-08-19T16:25:56.216Z,27.10
2018-08-19T16:31:00.094Z,27.20
2018-08-19T16:36:26.125Z,26.80
2018-08-19T16:41:30.033Z,27.00
2018-08-19T16:46:34.067Z,26.30
2018-08-19T16:51:38.728Z,27.00
2018-08-19T22:21:21.280Z,22.80
2018-08-19T22:26:28.774Z,22.60
2018-08-19T22:31:36.209Z,22.50
2018-08-19T22:36:44.184Z,22.60
2018-08-19T22:41:53.147Z,22.50
2018-08-19T22:46:57.120Z,22.50
2018-08-19T22:52:33.950Z,22.50
2018-08-19T22:57:37.861Z,22.50
2018-08-19T23:02:48.847Z,22.50
2018-08-19T23:07:52.743Z,22.60
2018-08-19T23:12:57.306Z,22.50
2018-08-19T23:18:01.543Z,22.50
2018-08-19T23:23:06.414Z,22.20
2018-08-19T23:28:11.061Z,22.10
2018-08-19T23:33:17.348Z,22.00
2018-08-19T23:38:21.099Z,21.70
2018-08-19T23:49:46.326Z,22.00
2018-08-19T23:54:51.928Z,21.70
2018-08-19T23:59:55.603Z,21.50
